createdAt,value
2023-04-04T00:00:22.006Z,3.83
2023-04-04T00:05:45.607Z,3.97
2023-04-04T00:11:07.081Z,3.50
2023-04-04T00:16:28.344Z,3.53
2023-04-04T00:21:50.511Z,3.00
2023-04-04T00:27:11.957Z,3.60
2023-04-04T00:32:33.343Z,3.80
2023-04-04T00:37:54.766Z,3.40
2023-04-04T00:43:17.178Z,3.27
2023-04-04T00:48:39.416Z,3.37
2023-04-04T00:54:01.346Z,3.90
2023-04-04T00:59:24.281Z,3.37
2023-04-04T01:04:45.956Z,3.50
2023-04-04T01:10:07.622Z,3.43
2023-04-04T01:15:29.978Z,3.60
2023-04-04T01:21:05.690Z,2.90
2023-04-04T01:26:27.729Z,2.73
2023-04-04T01:32:07.010Z,3.07
2023-04-04T01:37:50.647Z,2.87
2023-04-04T01:43:12.858Z,2.90
2023-04-04T01:48:36.960Z,2.83
2023-04-04T01:54:01.176Z,3.10
2023-04-04T01:59:22.862Z,2.90
2023-04-04T02:04:44.709Z,2.40
2023-04-04T02:10:06.378Z,3.00
2023-04-04T02:15:27.489Z,3.07
2023-04-04T02:20:57.027Z,2.37
2023-04-04T02:26:18.545Z,2.73
2023-04-04T02:31:40.126Z,3.00
2023-04-04T02:37:04.086Z,2.53
2023-04-04T02:42:26.189Z,2.60
2023-04-04T02:47:52.617Z,2.90
2023-04-04T02:53:22.220Z,2.50
2023-04-04T02:58:46.790Z,2.60
2023-04-04T03:04:08.570Z,2.37
2023-04-04T03:09:30.680Z,2.70
2023-04-04T03:14:51.736Z,2.47
2023-04-04T03:20:15.242Z,2.80
2023-04-04T03:25:37.107Z,2.43
2023-04-04T03:31:07.105Z,2.40
2023-04-04T03:36:32.451Z,2.77
2023-04-04T03:41:54.599Z,2.90
2023-04-04T03:47:16.181Z,2.37
2023-04-04T03:52:41.786Z,2.90
2023-04-04T03:58:03.190Z,2.70
2023-04-04T04:03:24.886Z,2.57
2023-04-04T04:08:46.776Z,2.70
2023-04-04T04:14:08.081Z,2.80
2023-04-04T04:19:31.323Z,3.30
2023-04-04T04:24:52.729Z,3.07
2023-04-04T04:30:14.152Z,3.33
2023-04-04T04:35:40.151Z,3.30
2023-04-04T04:41:02.911Z,3.57
2023-04-04T04:46:33.456Z,3.27
2023-04-04T04:51:56.273Z,3.23
2023-04-04T04:57:17.820Z,3.33
2023-04-04T05:02:39.717Z,4.03
2023-04-04T05:08:03.064Z,3.50
2023-04-04T05:13:27.155Z,3.93
2023-04-04T05:18:48.945Z,3.50
2023-04-04T05:24:10.678Z,4.00
2023-04-04T05:29:33.916Z,4.00
2023-04-04T05:34:57.498Z,3.83
2023-04-04T05:40:19.168Z,3.67
2023-04-04T05:45:46.632Z,3.70
2023-04-04T05:51:09.825Z,3.60
2023-04-04T05:56:44.826Z,4.53
2023-04-04T06:02:26.820Z,4.50
2023-04-04T06:07:52.726Z,5.03
2023-04-04T06:13:14.046Z,5.97
2023-04-04T06:18:38.668Z,6.27
2023-04-04T06:24:00.393Z,6.10
2023-04-04T06:29:22.783Z,6.17
2023-04-04T06:34:45.298Z,5.50
2023-04-04T06:40:10.211Z,6.23
2023-04-04T06:45:33.773Z,6.50
2023-04-04T06:50:55.215Z,6.83
2023-04-04T06:56:17.584Z,6.77
2023-04-04T07:01:38.871Z,5.90
2023-04-04T07:07:00.327Z,5.90
2023-04-04T07:12:21.934Z,6.10
2023-04-04T07:17:43.511Z,5.07
2023-04-04T07:23:05.043Z,6.33
2023-04-04T07:28:26.545Z,6.60
2023-04-04T07:33:48.111Z,6.47
2023-04-04T07:39:09.645Z,5.67
2023-04-04T07:44:31.352Z,5.63
2023-04-04T07:49:52.794Z,6.23
2023-04-04T07:55:15.600Z,5.73
2023-04-04T08:00:38.626Z,5.93
2023-04-04T08:06:00.680Z,5.80
2023-04-04T08:11:23.177Z,4.90
2023-04-04T08:16:44.388Z,5.40
2023-04-04T08:22:05.568Z,4.70
2023-04-04T08:27:27.583Z,4.07
2023-04-04T08:32:49.865Z,4.17
2023-04-04T08:38:11.393Z,3.90
2023-04-04T08:43:35.930Z,3.87
2023-04-04T08:48:58.776Z,4.60
2023-04-04T08:54:22.076Z,4.17
2023-04-04T08:59:43.611Z,3.60
2023-04-04T09:05:07.358Z,3.53
2023-04-04T09:10:29.921Z,3.70
2023-04-04T09:15:56.581Z,3.40
2023-04-04T09:21:20.613Z,2.80
2023-04-04T09:26:53.844Z,2.50
2023-04-04T09:32:17.263Z,2.23
2023-04-04T09:37:40.540Z,2.50
2023-04-04T09:43:03.162Z,2.63
2023-04-04T09:48:30.681Z,2.77
2023-04-04T09:53:52.264Z,2.30
2023-04-04T09:59:14.155Z,2.50
2023-04-04T10:04:36.692Z,2.20
2023-04-04T10:10:01.445Z,2.70
2023-04-04T10:15:24.422Z,2.27
2023-04-04T10:20:49.117Z,2.40
2023-04-04T10:26:11.038Z,2.70
2023-04-04T10:31:37.267Z,2.50
2023-04-04T10:37:13.327Z,2.43
2023-04-04T10:42:40.272Z,3.30
2023-04-04T10:48:03.119Z,2.67
2023-04-04T10:53:25.111Z,2.67
2023-04-04T10:58:46.677Z,2.40
2023-04-04T11:04:20.685Z,2.70
2023-04-04T11:09:53.361Z,2.77
2023-04-04T11:15:15.292Z,2.80
2023-04-04T11:20:39.062Z,2.17
2023-04-04T11:26:01.137Z,2.30
2023-04-04T11:31:33.297Z,2.63
2023-04-04T11:36:54.863Z,2.60
2023-04-04T11:42:16.731Z,2.70
2023-04-04T11:47:42.389Z,2.60
2023-04-04T11:53:07.587Z,2.57
2023-04-04T11:58:29.062Z,2.40
2023-04-04T12:03:51.465Z,1.70
2023-04-04T12:09:17.682Z,2.27
2023-04-04T12:14:40.208Z,2.30
2023-04-04T12:20:02.322Z,1.70
2023-04-04T12:25:25.948Z,2.00
2023-04-04T12:30:47.454Z,2.50
2023-04-04T12:36:09.360Z,2.23
2023-04-04T12:41:30.650Z,2.00
2023-04-04T12:46:52.454Z,2.20
2023-04-04T12:52:43.970Z,2.20
2023-04-04T12:58:07.393Z,2.30
2023-04-04T13:03:29.604Z,2.13
2023-04-04T13:08:55.190Z,1.63
2023-04-04T13:14:17.450Z,1.97
2023-04-04T13:19:38.840Z,2.23
2023-04-04T13:25:00.017Z,2.10
2023-04-04T13:30:21.315Z,2.00
2023-04-04T13:35:46.657Z,1.53
2023-04-04T13:41:08.399Z,1.70
2023-04-04T13:46:29.883Z,1.60
2023-04-04T13:51:51.114Z,1.40
2023-04-04T13:57:12.675Z,1.80
2023-04-04T14:02:34.394Z,1.70
2023-04-04T14:07:55.957Z,1.50
2023-04-04T14:13:18.333Z,1.70
2023-04-04T14:18:39.646Z,1.53
2023-04-04T14:24:01.008Z,1.33
2023-04-04T14:29:22.463Z,1.50
2023-04-04T14:34:44.097Z,1.40
2023-04-04T14:40:06.752Z,1.40
2023-04-04T14:45:32.308Z,1.23
2023-04-04T14:50:53.729Z,1.30
2023-04-04T14:56:15.107Z,1.40
2023-04-04T15:01:39.529Z,1.30
2023-04-04T15:07:03.263Z,1.40
2023-04-04T15:12:25.058Z,1.53
2023-04-04T15:17:46.920Z,1.43
2023-04-04T15:23:08.750Z,1.50
2023-04-04T15:28:30.424Z,1.60
2023-04-04T15:33:52.455Z,1.33
2023-04-04T15:39:14.017Z,1.70
2023-04-04T15:44:35.546Z,1.60
2023-04-04T15:49:56.866Z,1.43
2023-04-04T15:55:20.710Z,1.33
2023-04-04T16:00:47.482Z,1.27
2023-04-04T16:06:13.062Z,1.50
2023-04-04T16:11:34.488Z,1.20
2023-04-04T16:16:55.809Z,1.63
2023-04-04T16:22:17.219Z,1.40
2023-04-04T16:27:38.613Z,1.50
2023-04-04T16:33:00.231Z,1.30
2023-04-04T16:38:21.798Z,4.57
2023-04-04T16:43:43.593Z,3.00
2023-04-04T16:49:05.194Z,1.60
2023-04-04T16:54:26.622Z,2.03
2023-04-04T16:59:48.282Z,1.90
2023-04-04T17:05:10.028Z,1.70
2023-04-04T17:10:31.622Z,1.67
2023-04-04T17:15:53.222Z,1.60
2023-04-04T17:21:14.744Z,1.50
2023-04-04T17:26:36.597Z,1.53
2023-04-04T17:31:59.709Z,1.33
2023-04-04T17:37:21.158Z,1.60
2023-04-04T17:42:42.853Z,1.73
2023-04-04T17:48:04.451Z,2.13
2023-04-04T17:53:26.217Z,1.40
2023-04-04T17:58:47.893Z,1.70
2023-04-04T18:04:09.616Z,2.50
2023-04-04T18:09:31.120Z,2.07
2023-04-04T18:14:52.557Z,2.23
2023-04-04T18:20:21.184Z,1.57
2023-04-04T18:25:49.437Z,1.80
2023-04-04T18:31:11.729Z,1.90
2023-04-04T18:36:33.283Z,2.30
2023-04-04T18:41:54.874Z,2.60
2023-04-04T18:47:16.611Z,2.67
2023-04-04T18:52:38.265Z,3.33
2023-04-04T18:57:59.836Z,3.43
2023-04-04T19:03:22.283Z,3.80
2023-04-04T19:08:44.835Z,3.50
2023-04-04T19:14:09.112Z,3.93
2023-04-04T19:19:31.172Z,4.30
2023-04-04T19:24:52.467Z,4.83
2023-04-04T19:30:44.837Z,5.80
2023-04-04T19:36:11.909Z,6.43
2023-04-04T19:41:38.402Z,7.00
2023-04-04T19:47:01.155Z,6.27
2023-04-04T19:52:24.490Z,5.80
2023-04-04T19:57:46.903Z,6.30
2023-04-04T20:03:08.832Z,6.13
2023-04-04T20:08:44.550Z,5.73
2023-04-04T20:14:10.198Z,5.97
2023-04-04T20:19:32.877Z,5.93
2023-04-04T20:24:54.425Z,5.67
2023-04-04T20:30:15.907Z,7.33
2023-04-04T20:35:37.768Z,7.10
2023-04-04T20:41:00.098Z,7.03
2023-04-04T20:46:24.466Z,6.93
2023-04-04T20:51:45.906Z,6.90
2023-04-04T20:57:07.649Z,6.47
2023-04-04T21:02:29.154Z,6.70
2023-04-04T21:07:50.652Z,6.60
2023-04-04T21:13:12.079Z,7.33
2023-04-04T21:18:35.453Z,7.83
2023-04-04T21:24:00.707Z,6.77
2023-04-04T21:29:26.233Z,6.03
2023-04-04T21:34:47.920Z,5.70
2023-04-04T21:40:09.930Z,5.77
2023-04-04T21:45:31.429Z,5.77
2023-04-04T21:50:53.544Z,5.50
2023-04-04T21:56:15.458Z,5.57
2023-04-04T22:01:37.779Z,5.00
2023-04-04T22:06:59.238Z,5.10
2023-04-04T22:12:23.291Z,5.00
2023-04-04T22:17:55.145Z,4.83
2023-04-04T22:23:17.819Z,5.17
2023-04-04T22:28:41.865Z,4.60
2023-04-04T22:34:03.806Z,5.03
2023-04-04T22:39:25.272Z,4.67
2023-04-04T22:44:49.876Z,4.17
2023-04-04T22:50:11.953Z,4.83
2023-04-04T22:55:34.687Z,4.10
2023-04-04T23:00:56.018Z,4.50
2023-04-04T23:06:19.982Z,4.53
2023-04-04T23:11:41.982Z,5.73
2023-04-04T23:17:03.146Z,6.40
2023-04-04T23:22:25.900Z,6.00
2023-04-04T23:27:47.049Z,6.30
2023-04-04T23:33:08.442Z,6.70
2023-04-04T23:38:29.804Z,5.87
2023-04-04T23:43:51.289Z,5.77
2023-04-04T23:49:13.249Z,5.73
2023-04-04T23:54:34.519Z,6.27
2023-04-04T23:59:56.162Z,6.00
